Time;durP1;ratioP1;P1;durP2;ratioP2;P2;SDS_P1;SDS_P2;PMS_P1;PMS_P2;Temp;Humidity;BMP_temperature;BMP_pressure;BME280_temperature;BME280_humidity;BME280_pressure;Samples;Min_cycle;Max_cycle;Signal;HPM_P1;HPM_P2
2022/08/30 00:01:22;;;;;;;6.20;2.90;;;17.00;99.90;;;;;;5061616;28;20354;-67
2022/08/30 00:03:47;;;;;;;6.38;3.03;;;17.40;99.90;;;;;;5050981;28;20841;-67
2022/08/30 00:06:15;;;;;;;8.40;2.72;;;17.00;99.90;;;;;;5069031;28;20070;-67
2022/08/30 00:08:41;;;;;;;5.32;2.50;;;17.00;99.90;;;;;;5070732;28;20083;-67
2022/08/30 00:11:11;;;;;;;4.63;2.42;;;17.00;99.90;;;;;;5072460;28;20048;-67
2022/08/30 00:13:38;;;;;;;7.43;3.00;;;17.00;99.90;;;;;;5050873;28;20041;-67
2022/08/30 00:16:05;;;;;;;7.25;2.50;;;16.90;99.90;;;;;;5060331;28;20424;-67
2022/08/30 00:18:32;;;;;;;5.95;2.80;;;16.90;99.90;;;;;;5045084;28;20131;-67
2022/08/30 00:20:58;;;;;;;4.60;2.47;;;16.90;99.90;;;;;;5071556;28;20040;-67
2022/08/30 00:23:24;;;;;;;5.78;2.70;;;16.90;99.90;;;;;;5054406;28;20052;-67
2022/08/30 00:25:50;;;;;;;6.07;2.90;;;16.80;99.90;;;;;;5063487;28;20067;-67
2022/08/30 00:28:16;;;;;;;9.95;2.90;;;16.90;99.90;;;;;;5072004;28;20480;-67
2022/08/30 00:30:43;;;;;;;5.97;2.70;;;16.90;99.90;;;;;;5057499;28;20451;-68
2022/08/30 00:33:09;;;;;;;7.93;3.00;;;16.80;99.90;;;;;;5052048;28;20113;-66
2022/08/30 00:35:35;;;;;;;6.30;2.80;;;16.80;99.90;;;;;;5056297;28;20411;-66
2022/08/30 00:38:01;;;;;;;9.18;2.60;;;16.80;99.90;;;;;;5042954;28;20116;-67
2022/08/30 00:40:27;;;;;;;4.90;2.60;;;16.80;99.90;;;;;;5063913;28;20135;-67
2022/08/30 00:42:58;;;;;;;6.45;2.78;;;16.80;99.90;;;;;;5049578;28;20041;-67
2022/08/30 00:45:27;;;;;;;5.82;2.58;;;16.80;99.90;;;;;;5050635;28;20415;-66
2022/08/30 00:47:54;;;;;;;4.22;2.63;;;16.80;99.90;;;;;;5049809;28;20033;-67
2022/08/30 00:50:23;;;;;;;6.38;2.80;;;17.50;99.90;;;;;;5055180;28;20087;-67
2022/08/30 00:52:54;;;;;;;4.30;2.70;;;16.70;99.90;;;;;;5053851;28;20037;-67
2022/08/30 00:55:21;;;;;;;8.93;2.72;;;16.70;99.90;;;;;;5055335;28;20033;-67
2022/08/30 00:57:50;;;;;;;6.15;3.00;;;16.70;99.90;;;;;;5047994;28;20045;-67
2022/08/30 01:00:16;;;;;;;5.65;2.80;;;16.70;99.90;;;;;;5050899;28;20084;-66
2022/08/30 01:02:42;;;;;;;7.35;2.72;;;16.70;99.90;;;;;;5052472;28;20099;-66
2022/08/30 01:05:10;;;;;;;5.95;2.53;;;16.60;99.90;;;;;;5046940;28;20493;-67
2022/08/30 01:07:37;;;;;;;5.45;2.78;;;16.60;99.90;;;;;;5051173;28;20106;-66
2022/08/30 01:10:04;;;;;;;8.43;2.80;;;16.60;99.90;;;;;;5052372;28;20049;-66
2022/08/30 01:12:30;;;;;;;7.30;2.72;;;16.60;99.90;;;;;;5045082;28;20048;-67
2022/08/30 01:14:57;;;;;;;9.38;2.80;;;16.50;99.90;;;;;;5053860;28;20136;-67
2022/08/30 01:17:25;;;;;;;8.93;3.03;;;16.50;99.90;;;;;;5051225;28;20087;-67
2022/08/30 01:20:04;;;;;;;4.93;3.03;;;16.50;99.90;;;;;;5049849;28;20099;-67
2022/08/30 01:22:47;;;;;;;7.60;2.72;;;16.50;99.90;;;;;;5050497;28;20120;-67
2022/08/30 01:25:17;;;;;;;4.93;2.65;;;16.50;99.90;;;;;;5053067;28;20060;-67
2022/08/30 01:27:48;;;;;;;5.90;2.97;;;16.50;99.90;;;;;;5055170;28;21572;-67
2022/08/30 01:30:13;;;;;;;7.55;3.20;;;16.50;99.90;;;;;;5042001;28;20420;-67
2022/08/30 01:32:43;;;;;;;8.25;2.75;;;16.40;99.90;;;;;;5068482;28;20056;-67
2022/08/30 01:35:14;;;;;;;5.63;2.90;;;16.50;99.90;;;;;;5050580;28;20053;-67
2022/08/30 01:37:41;;;;;;;4.93;2.67;;;16.50;99.90;;;;;;5053637;28;20540;-67
2022/08/30 01:40:08;;;;;;;8.05;3.10;;;16.50;99.90;;;;;;5070985;28;20145;-68
2022/08/30 01:42:33;;;;;;;4.70;2.83;;;16.50;99.90;;;;;;5053507;28;20040;-67
2022/08/30 01:44:59;;;;;;;8.00;3.10;;;16.50;99.90;;;;;;5064739;28;20056;-67
2022/08/30 01:47:26;;;;;;;6.22;3.25;;;16.50;99.90;;;;;;5052124;28;20451;-67
2022/08/30 01:49:51;;;;;;;6.53;3.33;;;16.50;99.90;;;;;;5054204;28;20080;-67
2022/08/30 01:52:18;;;;;;;7.60;3.30;;;16.50;99.90;;;;;;5067189;28;20488;-67
2022/08/30 01:54:44;;;;;;;5.90;3.17;;;16.50;99.90;;;;;;5074616;28;20040;-67
2022/08/30 01:57:14;;;;;;;5.60;3.40;;;16.50;99.90;;;;;;5057154;28;20044;-67
2022/08/30 01:59:42;;;;;;;7.18;3.67;;;16.50;99.90;;;;;;5071138;28;20393;-67
2022/08/30 02:02:09;;;;;;;5.63;3.33;;;16.50;99.90;;;;;;5043744;28;20037;-67
2022/08/30 02:04:35;;;;;;;7.68;3.58;;;16.50;99.90;;;;;;5054645;28;20037;-67
2022/08/30 02:07:02;;;;;;;6.30;3.30;;;16.40;99.90;;;;;;5053865;28;20037;-67
2022/08/30 02:09:28;;;;;;;7.40;3.72;;;16.50;99.90;;;;;;5062216;28;20098;-68
2022/08/30 02:11:54;;;;;;;6.93;3.70;;;16.40;99.90;;;;;;5074916;28;20076;-67
2022/08/30 02:14:19;;;;;;;5.80;3.03;;;16.50;99.90;;;;;;5073880;28;20535;-67
2022/08/30 02:16:47;;;;;;;7.13;3.58;;;16.40;99.90;;;;;;5074996;28;20199;-67
2022/08/30 02:19:13;;;;;;;7.60;4.03;;;16.40;99.90;;;;;;5075047;28;20439;-67
2022/08/30 02:21:39;;;;;;;6.43;3.70;;;16.40;99.90;;;;;;5054386;28;20048;-67
2022/08/30 02:24:05;;;;;;;6.40;3.80;;;16.40;99.90;;;;;;5059002;28;20503;-67
2022/08/30 02:26:31;;;;;;;7.82;3.65;;;16.40;99.90;;;;;;5066811;28;20127;-67
2022/08/30 02:28:58;;;;;;;8.23;3.78;;;16.40;99.90;;;;;;5056366;28;20471;-67
2022/08/30 02:31:25;;;;;;;6.80;3.58;;;16.70;99.90;;;;;;5049228;28;20048;-67
2022/08/30 02:33:52;;;;;;;6.70;3.30;;;16.40;99.90;;;;;;5048979;28;20056;-67
2022/08/30 02:36:19;;;;;;;6.78;3.90;;;16.30;99.90;;;;;;5055690;28;20115;-67
2022/08/30 02:38:45;;;;;;;5.65;3.60;;;16.40;99.90;;;;;;5045299;28;20439;-67
2022/08/30 02:41:11;;;;;;;7.75;3.80;;;16.60;99.90;;;;;;5062413;28;20053;-67
2022/08/30 02:43:37;;;;;;;5.07;3.50;;;16.40;99.90;;;;;;5074597;28;20110;-67
2022/08/30 02:46:04;;;;;;;6.75;3.55;;;16.40;99.90;;;;;;5074324;28;20079;-67
2022/08/30 02:48:29;;;;;;;8.02;3.70;;;16.30;99.90;;;;;;5074577;28;20055;-66
2022/08/30 02:50:55;;;;;;;4.28;3.30;;;16.40;99.90;;;;;;5074286;28;20044;-67
2022/08/30 02:53:21;;;;;;;8.80;3.60;;;16.30;99.90;;;;;;5060096;28;20416;-67
2022/08/30 02:55:48;;;;;;;6.78;3.88;;;16.30;99.90;;;;;;5072317;28;20430;-67
2022/08/30 02:58:14;;;;;;;5.57;3.70;;;16.30;99.90;;;;;;5073930;28;20111;-66
2022/08/30 03:00:41;;;;;;;8.30;3.90;;;16.30;99.90;;;;;;5059163;28;20094;-66
2022/08/30 03:03:07;;;;;;;8.98;4.60;;;16.30;99.90;;;;;;5061523;28;20036;-66
2022/08/30 03:05:33;;;;;;;7.18;3.85;;;16.30;99.90;;;;;;5056076;28;20033;-67
2022/08/30 03:08:00;;;;;;;8.52;4.35;;;16.50;99.90;;;;;;5073568;28;20473;-66
2022/08/30 03:10:29;;;;;;;8.88;4.70;;;16.20;99.90;;;;;;5042456;28;20052;-67
2022/08/30 03:12:55;;;;;;;12.27;4.40;;;16.20;99.90;;;;;;5056246;28;20099;-66
2022/08/30 03:15:24;;;;;;;8.43;4.90;;;16.20;99.90;;;;;;5058994;28;20045;-66
2022/08/30 03:17:51;;;;;;;6.30;4.32;;;16.20;99.90;;;;;;5055839;28;20078;-66
2022/08/30 03:20:18;;;;;;;11.15;5.30;;;16.20;99.90;;;;;;5053032;28;20048;-67
2022/08/30 03:22:44;;;;;;;10.15;5.13;;;16.20;99.90;;;;;;5052709;28;20032;-67
2022/08/30 03:25:10;;;;;;;10.57;5.50;;;16.40;99.90;;;;;;5055624;28;20056;-67
2022/08/30 03:27:35;;;;;;;6.95;5.32;;;16.10;99.90;;;;;;5068691;28;20035;-67
2022/08/30 03:30:01;;;;;;;9.10;5.68;;;16.10;99.90;;;;;;5073358;28;20408;-67
2022/08/30 03:32:27;;;;;;;11.75;6.47;;;16.10;99.90;;;;;;5066755;28;20033;-67
2022/08/30 03:34:52;;;;;;;9.30;6.72;;;16.10;99.90;;;;;;5073339;28;20084;-67
2022/08/30 03:37:19;;;;;;;9.73;6.72;;;16.00;99.90;;;;;;5070235;28;20123;-67
2022/08/30 03:39:44;;;;;;;11.00;6.50;;;16.00;99.90;;;;;;5070599;28;20045;-67
2022/08/30 03:42:10;;;;;;;9.55;6.80;;;16.00;99.90;;;;;;5054927;28;20048;-67
2022/08/30 03:44:36;;;;;;;11.35;6.88;;;16.00;99.90;;;;;;5053106;28;20079;-67
2022/08/30 03:47:03;;;;;;;11.45;6.75;;;15.90;99.90;;;;;;5055606;28;20040;-67
2022/08/30 03:49:30;;;;;;;10.15;6.88;;;15.90;99.90;;;;;;5054891;28;20452;-67
2022/08/30 03:51:56;;;;;;;8.93;6.57;;;15.90;99.90;;;;;;5070957;28;20186;-67
2022/08/30 03:54:22;;;;;;;12.20;6.68;;;15.90;99.90;;;;;;5048377;28;20135;-67
2022/08/30 03:56:48;;;;;;;9.57;5.88;;;15.80;99.90;;;;;;5071569;28;20029;-67
2022/08/30 03:59:14;;;;;;;12.20;6.13;;;15.80;99.90;;;;;;5040990;28;20067;-67
2022/08/30 04:01:40;;;;;;;8.45;5.15;;;15.80;99.90;;;;;;5071707;28;20175;-67
2022/08/30 04:04:07;;;;;;;7.15;5.38;;;15.90;99.90;;;;;;5072621;28;20040;-68
2022/08/30 04:06:33;;;;;;;11.00;4.72;;;16.40;99.90;;;;;;5071928;28;20044;-67
2022/08/30 04:08:59;;;;;;;6.47;4.53;;;15.90;99.90;;;;;;5072767;28;20032;-67
2022/08/30 04:11:25;;;;;;;8.65;4.60;;;15.70;99.90;;;;;;5054802;28;20508;-67
2022/08/30 04:13:51;;;;;;;10.93;5.03;;;15.70;99.90;;;;;;5072585;28;20043;-67
2022/08/30 04:16:18;;;;;;;9.90;4.45;;;16.00;99.90;;;;;;5053067;28;20444;-68
2022/08/30 04:18:44;;;;;;;6.63;4.30;;;15.60;99.90;;;;;;5049573;28;20040;-68
2022/08/30 04:21:10;;;;;;;7.00;4.07;;;15.60;99.90;;;;;;5057568;28;20040;-67
2022/08/30 04:23:35;;;;;;;9.15;4.72;;;15.60;99.90;;;;;;5053127;28;20037;-67
2022/08/30 04:26:01;;;;;;;6.80;4.10;;;15.60;99.90;;;;;;5072725;28;20044;-68
2022/08/30 04:28:27;;;;;;;6.40;3.60;;;15.60;99.90;;;;;;5072291;28;20112;-68
2022/08/30 04:30:52;;;;;;;7.57;3.80;;;15.50;99.90;;;;;;5055449;28;20106;-67
2022/08/30 04:33:18;;;;;;;8.25;3.60;;;15.50;99.90;;;;;;5061897;28;20040;-68
2022/08/30 04:35:47;;;;;;;7.28;3.22;;;15.50;99.90;;;;;;5072527;28;20040;-68
2022/08/30 04:38:13;;;;;;;10.10;3.65;;;15.70;99.90;;;;;;5070898;28;20070;-68
2022/08/30 04:40:44;;;;;;;6.78;3.40;;;15.50;99.90;;;;;;5054212;28;20049;-68
2022/08/30 04:43:11;;;;;;;8.10;3.42;;;15.50;99.90;;;;;;5051578;28;20036;-68
2022/08/30 04:45:41;;;;;;;7.05;3.25;;;15.70;99.90;;;;;;5055801;28;20064;-68
2022/08/30 04:48:07;;;;;;;7.95;3.65;;;15.50;99.90;;;;;;5044067;28;20071;-68
2022/08/30 04:50:33;;;;;;;6.78;3.22;;;15.50;99.90;;;;;;5061649;28;20075;-68
2022/08/30 04:52:59;;;;;;;8.93;3.30;;;15.50;99.90;;;;;;5063674;28;20137;-68
2022/08/30 04:55:25;;;;;;;8.40;3.53;;;15.50;99.90;;;;;;5033889;28;20041;-68
2022/08/30 04:57:51;;;;;;;10.18;3.67;;;15.50;99.90;;;;;;5058753;28;20178;-68
2022/08/30 05:00:19;;;;;;;6.47;3.28;;;16.30;99.90;;;;;;5071898;28;20048;-68
2022/08/30 05:02:45;;;;;;;5.85;3.38;;;15.50;99.90;;;;;;5071501;28;20518;-68
2022/08/30 05:07:56;;;;;;;7.10;3.40;;;15.40;99.90;;;;;;5052392;28;20159;-67
2022/08/30 05:10:22;;;;;;;6.40;3.50;;;15.40;99.90;;;;;;5071602;28;20120;-67
2022/08/30 05:12:48;;;;;;;7.50;3.63;;;15.40;99.90;;;;;;5064599;28;20342;-68
2022/08/30 05:15:15;;;;;;;7.57;3.60;;;15.60;99.90;;;;;;5051512;28;20477;-67
2022/08/30 05:17:40;;;;;;;5.57;3.20;;;15.40;99.90;;;;;;5052566;28;20099;-67
2022/08/30 05:20:08;;;;;;;5.82;3.25;;;15.50;99.90;;;;;;5054014;28;20123;-68
2022/08/30 05:22:38;;;;;;;6.43;3.40;;;15.40;99.90;;;;;;5056373;28;20492;-68
2022/08/30 05:25:05;;;;;;;6.35;3.45;;;15.60;99.90;;;;;;5070746;28;20083;-67
2022/08/30 05:27:31;;;;;;;7.05;3.10;;;15.40;99.90;;;;;;5074476;28;20457;-67
2022/08/30 05:29:56;;;;;;;4.95;3.30;;;15.50;99.90;;;;;;5069801;28;20028;-68
2022/08/30 05:32:22;;;;;;;5.40;3.20;;;15.50;99.90;;;;;;5059250;28;20080;-68
2022/08/30 05:34:48;;;;;;;6.25;3.25;;;15.50;99.90;;;;;;5074039;28;20044;-68
2022/08/30 05:37:13;;;;;;;7.22;3.33;;;15.50;99.90;;;;;;5075536;28;20040;-68
2022/08/30 05:39:39;;;;;;;6.07;3.45;;;15.50;99.90;;;;;;5075495;28;20044;-67
2022/08/30 05:42:05;;;;;;;6.35;3.70;;;15.50;99.90;;;;;;5074978;28;20055;-69
2022/08/30 05:44:30;;;;;;;6.93;3.53;;;15.50;99.90;;;;;;5069805;28;20040;-68
2022/08/30 05:46:56;;;;;;;6.20;3.50;;;15.60;99.90;;;;;;5058722;28;20504;-68
2022/08/30 05:49:22;;;;;;;8.32;3.45;;;15.60;99.90;;;;;;5057429;28;20066;-68
2022/08/30 05:51:48;;;;;;;6.95;3.42;;;15.60;99.90;;;;;;5055878;28;20052;-68
2022/08/30 05:54:15;;;;;;;5.93;3.55;;;15.60;99.90;;;;;;5061701;28;20049;-68
2022/08/30 05:56:44;;;;;;;6.82;3.75;;;15.70;99.90;;;;;;5056027;28;20094;-68
2022/08/30 05:59:10;;;;;;;7.32;3.83;;;15.70;99.90;;;;;;5057361;28;20048;-68
2022/08/30 06:01:39;;;;;;;6.50;3.65;;;15.70;99.90;;;;;;5060345;28;20178;-68
2022/08/30 06:04:07;;;;;;;7.32;3.50;;;15.80;99.90;;;;;;5054176;28;20127;-68
2022/08/30 06:06:35;;;;;;;5.82;3.78;;;15.80;99.90;;;;;;5053431;28;20504;-68
2022/08/30 06:09:01;;;;;;;7.22;3.78;;;15.90;99.90;;;;;;5056568;28;20068;-68
2022/08/30 06:11:27;;;;;;;7.13;3.45;;;15.90;99.90;;;;;;5054688;28;20057;-68
2022/08/30 06:13:53;;;;;;;5.43;3.20;;;15.90;99.90;;;;;;5056878;28;20053;-68
2022/08/30 06:16:20;;;;;;;6.82;3.67;;;16.00;99.90;;;;;;5045684;28;20530;-68
2022/08/30 06:18:47;;;;;;;6.57;3.25;;;16.30;99.90;;;;;;5067588;28;20402;-68
2022/08/30 06:21:24;;;;;;;6.22;3.45;;;16.10;99.90;;;;;;5070094;28;20033;-68
2022/08/30 06:23:50;;;;;;;7.32;3.35;;;16.10;99.90;;;;;;5054486;28;20056;-68
2022/08/30 06:26:16;;;;;;;7.05;3.50;;;16.20;99.90;;;;;;5072944;28;20088;-68
2022/08/30 06:28:42;;;;;;;8.18;3.50;;;16.40;99.90;;;;;;5060834;28;20042;-68
2022/08/30 06:31:09;;;;;;;7.90;3.60;;;16.80;99.90;;;;;;5047465;28;20033;-68
2022/08/30 06:33:36;;;;;;;5.70;3.40;;;16.70;99.90;;;;;;5050085;28;20423;-68
2022/08/30 06:36:04;;;;;;;5.82;3.38;;;16.50;99.90;;;;;;5053875;28;20048;-68
2022/08/30 06:38:29;;;;;;;8.95;3.50;;;16.50;99.90;;;;;;5053496;28;20048;-68
2022/08/30 06:40:55;;;;;;;11.32;3.42;;;16.80;99.90;;;;;;5054624;28;20554;-68
2022/08/30 06:43:21;;;;;;;6.00;3.10;;;16.60;99.90;;;;;;5054260;28;20163;-68
2022/08/30 06:45:47;;;;;;;6.50;3.20;;;16.80;99.90;;;;;;5049585;28;20037;-68
2022/08/30 06:48:12;;;;;;;8.48;2.97;;;16.90;99.90;;;;;;5054971;28;20041;-68
2022/08/30 06:50:40;;;;;;;6.97;2.70;;;17.00;99.90;;;;;;5074331;28;20081;-68
2022/08/30 06:53:07;;;;;;;5.72;2.88;;;17.00;99.90;;;;;;5052685;28;20079;-69
2022/08/30 06:55:32;;;;;;;4.60;2.40;;;17.20;99.90;;;;;;5074121;28;20392;-69
2022/08/30 06:57:59;;;;;;;4.78;2.40;;;17.20;99.90;;;;;;5074256;28;20040;-69
2022/08/30 07:00:26;;;;;;;5.15;2.30;;;17.20;99.90;;;;;;5067555;28;20049;-69
2022/08/30 07:02:52;;;;;;;3.85;2.20;;;17.30;99.90;;;;;;5056510;28;20528;-68
2022/08/30 07:05:21;;;;;;;4.28;2.28;;;17.40;99.90;;;;;;5053616;28;20049;-69
2022/08/30 07:07:47;;;;;;;4.25;2.00;;;17.50;99.90;;;;;;5036320;28;20040;-68
2022/08/30 07:10:14;;;;;;;6.78;2.33;;;17.80;99.90;;;;;;5052054;28;20120;-69
2022/08/30 07:12:40;;;;;;;4.32;1.80;;;17.70;99.90;;;;;;5052612;28;20041;-68
2022/08/30 07:15:07;;;;;;;3.85;2.05;;;17.80;99.90;;;;;;5055228;28;20059;-69
2022/08/30 07:20:18;;;;;;;3.97;1.90;;;18.20;99.90;;;;;;5047819;28;20133;-69
2022/08/30 07:22:45;;;;;;;3.67;1.83;;;18.30;99.90;;;;;;5052281;28;20047;-69
2022/08/30 07:25:10;;;;;;;6.78;1.90;;;18.40;99.90;;;;;;5041750;28;20480;-69
2022/08/30 07:27:36;;;;;;;3.30;1.80;;;18.50;99.90;;;;;;5051463;28;20029;-68
2022/08/30 07:30:04;;;;;;;3.45;1.90;;;18.60;99.90;;;;;;5052862;28;20480;-68
2022/08/30 07:32:30;;;;;;;4.25;2.17;;;18.70;99.90;;;;;;5055725;28;20456;-68
2022/08/30 07:34:56;;;;;;;5.43;2.03;;;18.80;99.90;;;;;;5062047;28;20080;-68
2022/08/30 07:37:22;;;;;;;4.93;1.92;;;18.90;99.90;;;;;;5053030;28;20045;-69
2022/08/30 07:39:47;;;;;;;5.28;2.10;;;19.10;99.90;;;;;;5052074;28;20075;-69
2022/08/30 07:42:13;;;;;;;8.82;2.53;;;19.10;99.90;;;;;;5054343;28;20049;-70
2022/08/30 07:44:38;;;;;;;4.45;1.73;;;19.20;99.90;;;;;;5054321;28;20052;-69
2022/08/30 07:47:04;;;;;;;4.88;1.70;;;19.30;99.90;;;;;;5073052;28;20036;-69
2022/08/30 07:49:30;;;;;;;6.13;1.70;;;19.40;99.90;;;;;;5054814;28;20413;-69
2022/08/30 07:51:56;;;;;;;3.30;1.70;;;19.40;99.90;;;;;;5054960;28;20551;-70
2022/08/30 07:54:21;;;;;;;4.43;1.73;;;19.50;99.90;;;;;;5039576;28;20048;-70
2022/08/30 07:56:47;;;;;;;4.47;1.60;;;19.50;99.90;;;;;;5052985;28;20401;-69
2022/08/30 07:59:13;;;;;;;4.25;1.60;;;19.60;99.90;;;;;;5045922;28;20490;-70
2022/08/30 08:01:39;;;;;;;3.70;1.42;;;19.70;99.90;;;;;;5043009;28;20041;-71
2022/08/30 08:04:05;;;;;;;4.43;1.70;;;19.70;99.90;;;;;;5051913;28;20048;-69
2022/08/30 08:06:31;;;;;;;6.55;1.80;;;19.80;99.90;;;;;;5051480;28;20060;-69
2022/08/30 08:09:01;;;;;;;3.50;1.73;;;19.80;99.90;;;;;;5062426;28;20037;-70
2022/08/30 08:11:27;;;;;;;2.97;1.60;;;19.90;99.90;;;;;;5071758;28;20397;-69
2022/08/30 08:13:53;;;;;;;3.28;1.70;;;20.00;99.90;;;;;;5042388;28;20143;-70
2022/08/30 08:16:23;;;;;;;3.72;1.50;;;20.10;99.90;;;;;;5015191;28;20122;-69
2022/08/30 08:18:49;;;;;;;8.52;1.98;;;20.10;99.90;;;;;;5032543;28;20053;-70
2022/08/30 08:21:15;;;;;;;2.22;1.48;;;20.20;99.90;;;;;;5032574;28;20049;-69
2022/08/30 08:23:41;;;;;;;6.32;1.90;;;20.20;99.90;;;;;;5031556;28;20382;-69
2022/08/30 08:26:06;;;;;;;4.45;1.73;;;20.30;99.90;;;;;;5032600;28;20503;-70
2022/08/30 08:28:32;;;;;;;3.88;1.58;;;20.40;99.90;;;;;;5032449;28;20068;-69
2022/08/30 08:30:58;;;;;;;4.38;1.60;;;20.50;99.90;;;;;;5048463;28;20076;-69
2022/08/30 08:33:23;;;;;;;5.78;1.85;;;20.60;99.90;;;;;;5052296;28;20041;-69
2022/08/30 08:35:49;;;;;;;4.22;1.73;;;20.70;99.90;;;;;;5051389;28;20040;-70
2022/08/30 08:38:15;;;;;;;4.72;1.60;;;20.90;99.90;;;;;;5051891;28;20048;-69
2022/08/30 08:40:49;;;;;;;2.78;1.60;;;21.00;99.90;;;;;;5054617;28;20053;-69
2022/08/30 08:43:19;;;;;;;6.95;1.92;;;21.10;99.90;;;;;;5036889;28;20151;-68
2022/08/30 08:45:59;;;;;;;3.13;1.70;;;21.20;99.90;;;;;;5052885;28;20037;-68
2022/08/30 08:48:33;;;;;;;4.53;2.13;;;21.30;99.90;;;;;;5050715;28;20132;-68
2022/08/30 08:53:55;;;;;;;3.78;1.50;;;21.40;99.90;;;;;;5050998;28;20049;-69
2022/08/30 08:56:21;;;;;;;4.22;1.63;;;21.40;99.90;;;;;;5050646;28;20467;-70
2022/08/30 08:58:56;;;;;;;3.75;1.60;;;21.40;99.90;;;;;;5043518;28;20044;-69
2022/08/30 09:01:32;;;;;;;3.88;1.48;;;21.50;99.90;;;;;;5036038;28;20075;-69
2022/08/30 09:04:01;;;;;;;4.03;1.42;;;21.50;99.90;;;;;;5065488;28;20342;-69
2022/08/30 09:06:30;;;;;;;5.35;1.80;;;21.60;99.90;;;;;;5040360;28;20044;-69
2022/08/30 09:08:55;;;;;;;5.93;1.80;;;21.60;99.90;;;;;;5062346;28;20083;-69
2022/08/30 09:11:25;;;;;;;4.90;1.70;;;21.70;99.90;;;;;;5070106;28;20079;-69
2022/08/30 09:13:53;;;;;;;3.72;1.60;;;21.90;99.90;;;;;;5052655;28;20057;-69
2022/08/30 09:16:48;;;;;;;5.38;1.73;;;22.20;99.90;;;;;;5057967;28;20369;-70
2022/08/30 09:19:33;;;;;;;3.80;1.60;;;22.60;99.90;;;;;;5059352;28;20135;-68
2022/08/30 09:22:02;;;;;;;4.18;1.70;;;22.80;99.90;;;;;;5053681;28;20041;-68
2022/08/30 09:24:37;;;;;;;3.03;1.60;;;22.90;99.90;;;;;;5062099;28;20380;-68
2022/08/30 09:27:15;;;;;;;3.58;1.50;;;23.10;99.90;;;;;;5043569;28;20041;-68
2022/08/30 09:29:56;;;;;;;3.17;1.60;;;23.50;99.90;;;;;;5044562;28;20393;-68
2022/08/30 09:32:31;;;;;;;4.47;1.70;;;23.70;99.90;;;;;;5058466;28;20060;-68
2022/08/30 09:34:57;;;;;;;6.22;1.80;;;24.00;99.90;;;;;;5053620;28;20349;-69
2022/08/30 09:37:55;;;;;;;3.38;1.60;;;24.40;99.60;;;;;;5083275;28;20048;-69
2022/08/30 09:40:32;;;;;;;5.13;1.60;;;24.60;99.20;;;;;;5065082;28;20128;-68
2022/08/30 09:43:19;;;;;;;5.05;1.63;;;24.70;98.80;;;;;;5051820;28;20500;-69
2022/08/30 09:45:47;;;;;;;6.00;1.70;;;25.00;98.30;;;;;;5043832;28;20045;-67
2022/08/30 09:48:27;;;;;;;6.43;1.67;;;25.20;98.20;;;;;;5071845;28;20441;-67
2022/08/30 09:51:12;;;;;;;2.88;1.45;;;25.30;97.80;;;;;;5060809;28;20044;-70
2022/08/30 09:53:52;;;;;;;2.72;1.50;;;25.20;97.60;;;;;;5046149;28;20055;-68
2022/08/30 09:56:49;;;;;;;2.97;1.48;;;25.40;97.30;;;;;;5057519;28;20094;-67
2022/08/30 09:59:28;;;;;;;6.85;1.70;;;25.30;97.30;;;;;;5057171;28;20040;-68
2022/08/30 10:02:36;;;;;;;3.25;1.60;;;25.00;97.40;;;;;;5059962;28;20106;-67
2022/08/30 10:05:06;;;;;;;3.30;1.58;;;24.70;97.70;;;;;;5059809;28;20048;-67
2022/08/30 10:07:39;;;;;;;2.92;1.42;;;24.50;97.80;;;;;;5077175;28;20171;-68
2022/08/30 10:10:18;;;;;;;4.57;1.60;;;24.30;96.80;;;;;;5078151;28;20044;-68
2022/08/30 10:13:00;;;;;;;3.45;1.30;;;24.00;97.10;;;;;;5047731;28;20127;-67
2022/08/30 10:15:34;;;;;;;4.22;1.60;;;24.20;96.70;;;;;;5046558;28;20055;-67
2022/08/30 10:18:05;;;;;;;3.20;1.40;;;24.20;96.80;;;;;;5074904;28;20122;-67
2022/08/30 10:20:40;;;;;;;3.40;1.40;;;24.10;97.20;;;;;;5073978;28;20105;-67
2022/08/30 10:23:11;;;;;;;5.15;1.45;;;23.90;96.80;;;;;;5020403;28;20595;-67
2022/08/30 10:26:04;;;;;;;4.55;1.63;;;23.80;96.90;;;;;;5060030;28;20080;-68
2022/08/30 10:28:37;;;;;;;3.83;1.60;;;23.60;97.80;;;;;;5048228;28;20056;-69
2022/08/30 10:31:13;;;;;;;2.42;1.52;;;23.90;97.80;;;;;;5052932;28;20128;-66
2022/08/30 10:33:46;;;;;;;2.30;1.50;;;24.30;97.60;;;;;;5057227;28;20055;-69
2022/08/30 10:36:13;;;;;;;4.18;1.40;;;24.70;96.50;;;;;;5055485;28;20437;-69
2022/08/30 10:38:46;;;;;;;3.13;1.75;;;25.10;95.50;;;;;;5086710;28;20083;-67
2022/08/30 10:41:30;;;;;;;4.47;1.65;;;25.40;95.40;;;;;;5051300;28;20052;-72
2022/08/30 10:44:06;;;;;;;3.53;1.67;;;25.50;95.40;;;;;;5049799;28;20522;-72
2022/08/30 10:46:34;;;;;;;6.93;1.80;;;25.50;95.60;;;;;;5069691;28;20437;-71
2022/08/30 10:49:02;;;;;;;4.30;1.58;;;25.70;94.80;;;;;;5054875;28;20086;-71
2022/08/30 10:51:49;;;;;;;6.25;1.50;;;26.00;94.40;;;;;;5050408;28;20044;-72
2022/08/30 10:54:48;;;;;;;2.72;1.35;;;26.40;94.30;;;;;;5043617;28;20049;-72
2022/08/30 10:57:16;;;;;;;2.67;1.40;;;26.80;94.20;;;;;;5046416;28;20175;-72
2022/08/30 10:59:48;;;;;;;2.53;1.30;;;27.00;94.10;;;;;;5041517;28;20045;-72
2022/08/30 11:02:39;;;;;;;3.33;1.40;;;27.20;93.70;;;;;;5030833;28;20049;-73
2022/08/30 11:05:33;;;;;;;4.38;1.40;;;27.40;93.50;;;;;;5045727;28;20116;-72
2022/08/30 11:08:20;;;;;;;2.92;1.50;;;27.40;93.10;;;;;;5084999;28;20127;-72
2022/08/30 11:10:50;;;;;;;4.28;1.40;;;27.50;93.10;;;;;;5049659;28;20098;-68
2022/08/30 11:13:28;;;;;;;3.05;1.30;;;27.70;93.10;;;;;;5051999;28;20048;-68
2022/08/30 11:16:14;;;;;;;3.08;1.30;;;28.00;92.60;;;;;;5035944;28;20045;-68
2022/08/30 11:18:55;;;;;;;3.05;1.35;;;28.30;92.10;;;;;;5050539;28;20519;-68
2022/08/30 11:21:31;;;;;;;4.55;1.42;;;28.80;92.10;;;;;;5055979;28;20045;-68
2022/08/30 11:24:03;;;;;;;3.03;1.38;;;29.40;90.20;;;;;;5055570;28;20461;-68
2022/08/30 11:26:49;;;;;;;4.63;1.45;;;29.70;89.00;;;;;;5061320;28;20060;-68
2022/08/30 11:29:43;;;;;;;2.05;1.30;;;29.80;88.50;;;;;;5059318;28;20198;-68
2022/08/30 11:32:12;;;;;;;2.97;1.40;;;29.80;87.20;;;;;;5068265;28;20051;-68
2022/08/30 11:34:58;;;;;;;4.47;1.70;;;29.50;86.90;;;;;;5053295;28;20048;-68
2022/08/30 11:37:42;;;;;;;2.63;1.45;;;29.30;86.50;;;;;;5035412;28;20540;-68
2022/08/30 11:40:19;;;;;;;2.90;1.30;;;29.10;85.80;;;;;;5052787;28;20067;-69
2022/08/30 11:42:50;;;;;;;4.93;1.50;;;29.00;85.60;;;;;;5034697;28;20404;-68
2022/08/30 11:45:22;;;;;;;5.05;1.40;;;28.80;86.40;;;;;;5053098;28;20049;-68
2022/08/30 11:48:27;;;;;;;2.88;1.30;;;28.90;86.20;;;;;;5052832;28;20041;-69
2022/08/30 11:51:39;;;;;;;2.20;1.23;;;29.00;86.40;;;;;;5052591;28;20511;-69
2022/08/30 11:54:24;;;;;;;4.22;1.40;;;29.10;87.10;;;;;;5035401;28;20412;-69
2022/08/30 11:57:26;;;;;;;2.20;1.30;;;29.60;85.50;;;;;;5053028;28;20075;-69
2022/08/30 12:00:08;;;;;;;2.80;1.50;;;29.90;85.50;;;;;;5052980;28;20052;-69
2022/08/30 12:02:53;;;;;;;4.38;1.40;;;30.30;84.60;;;;;;5053125;28;20048;-68
2022/08/30 12:05:34;;;;;;;;;;;31.20;82.70;;;;;;5053314;28;20048;-69
2022/08/30 12:08:02;;;;;;;3.30;1.30;;;32.30;82.50;;;;;;5052763;28;19925;-69
2022/08/30 12:10:45;;;;;;;2.85;1.50;;;34.60;77.60;;;;;;5052794;28;20392;-69
2022/08/30 12:13:32;;;;;;;3.05;1.20;;;36.80;74.80;;;;;;5048709;28;20338;-69
2022/08/30 12:16:10;;;;;;;4.10;1.38;;;38.60;72.30;;;;;;5033103;28;20041;-69
2022/08/30 12:18:46;;;;;;;3.60;1.40;;;40.10;65.80;;;;;;5032710;28;20052;-69
2022/08/30 12:21:20;;;;;;;2.58;1.23;;;40.90;63.50;;;;;;5032792;28;20463;-69
2022/08/30 12:23:56;;;;;;;5.18;1.30;;;40.40;61.70;;;;;;5032901;28;20390;-69
2022/08/30 12:26:24;;;;;;;3.42;1.35;;;40.60;61.70;;;;;;5048056;28;20050;-69
2022/08/30 12:29:03;;;;;;;3.10;1.30;;;41.00;60.60;;;;;;5032494;28;20116;-69
2022/08/30 12:31:29;;;;;;;6.93;1.20;;;41.60;58.40;;;;;;5032654;28;20485;-69
2022/08/30 12:33:58;;;;;;;3.72;1.30;;;42.30;57.70;;;;;;5032467;28;20081;-69
2022/08/30 12:36:37;;;;;;;2.92;1.20;;;42.90;56.90;;;;;;5031606;28;20081;-68
2022/08/30 12:39:17;;;;;;;3.72;1.20;;;43.20;55.30;;;;;;5032218;28;20128;-68
2022/08/30 12:41:44;;;;;;;1.75;1.10;;;43.00;55.00;;;;;;5031916;28;20100;-69
2022/08/30 12:44:17;;;;;;;3.47;1.10;;;42.90;54.00;;;;;;5045688;28;20133;-68
2022/08/30 12:46:47;;;;;;;2.55;1.15;;;42.50;53.90;;;;;;5030536;28;20041;-69
2022/08/30 12:49:16;;;;;;;3.83;1.48;;;41.10;53.80;;;;;;5031943;28;20115;-68
2022/08/30 12:51:43;;;;;;;3.42;1.40;;;39.00;55.00;;;;;;5031981;28;20042;-68
2022/08/30 12:54:19;;;;;;;3.20;1.50;;;37.20;56.70;;;;;;5030552;28;20497;-68
2022/08/30 12:57:03;;;;;;;4.38;1.48;;;35.50;58.40;;;;;;5047194;28;20049;-68
2022/08/30 12:59:41;;;;;;;3.53;1.60;;;33.80;60.30;;;;;;5014846;28;20045;-68
2022/08/30 13:02:12;;;;;;;6.13;1.48;;;32.60;61.80;;;;;;5031562;28;20064;-68
2022/08/30 13:04:38;;;;;;;3.20;1.50;;;31.60;63.40;;;;;;5064514;28;20049;-68
2022/08/30 13:07:04;;;;;;;9.05;1.52;;;31.00;64.30;;;;;;5051548;28;20568;-68
2022/08/30 13:09:39;;;;;;;3.95;1.40;;;30.50;64.50;;;;;;5052066;28;20120;-68